createdAt,value
2023-02-02T00:01:24.103Z,3.00
2023-02-02T00:07:27.511Z,2.65
2023-02-02T00:13:30.923Z,2.20
2023-02-02T00:19:35.954Z,3.50
2023-02-02T00:25:39.330Z,2.40
2023-02-02T00:31:42.760Z,1.70
2023-02-02T00:37:47.736Z,2.17
2023-02-02T00:44:11.475Z,2.08
2023-02-02T00:50:16.459Z,2.00
2023-02-02T00:56:21.174Z,1.95
2023-02-02T01:02:24.642Z,1.88
2023-02-02T01:08:28.045Z,2.40
2023-02-02T01:14:32.873Z,1.85
2023-02-02T01:20:36.283Z,2.75
2023-02-02T01:26:39.712Z,2.90
2023-02-02T01:32:44.463Z,2.60
2023-02-02T01:38:48.422Z,2.40
2023-02-02T01:45:06.675Z,2.50
2023-02-02T01:51:13.077Z,1.60
2023-02-02T01:57:20.533Z,2.80
2023-02-02T02:03:25.896Z,2.70
2023-02-02T02:09:31.085Z,1.92
2023-02-02T02:15:56.698Z,2.15
2023-02-02T02:22:20.275Z,2.25
2023-02-02T02:28:36.776Z,2.08
2023-02-02T02:34:47.365Z,1.58
2023-02-02T02:40:53.703Z,2.00
2023-02-02T02:46:57.079Z,1.67
2023-02-02T02:53:05.780Z,1.60
2023-02-02T02:59:12.819Z,1.95
2023-02-02T03:05:25.735Z,1.63
2023-02-02T03:11:30.993Z,1.65
2023-02-02T03:17:34.522Z,2.10
2023-02-02T03:23:38.806Z,2.13
2023-02-02T03:29:43.603Z,2.58
2023-02-02T03:35:47.433Z,2.40
2023-02-02T03:41:51.052Z,2.70
2023-02-02T03:47:56.163Z,2.03
2023-02-02T03:53:59.576Z,2.15
2023-02-02T04:00:02.969Z,2.63
2023-02-02T04:06:08.179Z,1.98
2023-02-02T04:12:11.542Z,1.58
2023-02-02T04:18:14.946Z,1.90
2023-02-02T04:24:19.758Z,1.77
2023-02-02T04:30:23.235Z,2.08
2023-02-02T04:36:27.000Z,2.00
2023-02-02T04:42:34.409Z,2.05
2023-02-02T04:48:37.921Z,1.90
2023-02-02T04:54:41.328Z,1.35
2023-02-02T05:00:46.203Z,1.60
2023-02-02T05:06:49.624Z,2.28
2023-02-02T05:12:54.224Z,1.90
2023-02-02T05:18:59.602Z,1.73
2023-02-02T05:25:03.177Z,1.70
2023-02-02T05:31:08.083Z,2.30
2023-02-02T05:37:12.843Z,1.70
2023-02-02T05:43:16.341Z,1.45
2023-02-02T05:49:19.689Z,1.88
2023-02-02T05:55:24.732Z,1.50
2023-02-02T06:01:28.409Z,1.75
2023-02-02T06:07:31.823Z,1.30
2023-02-02T06:13:36.697Z,1.30
2023-02-02T06:19:40.286Z,1.58
2023-02-02T06:25:43.708Z,1.63
2023-02-02T06:31:48.558Z,1.95
2023-02-02T06:37:52.048Z,1.38
2023-02-02T06:43:55.482Z,2.13
2023-02-02T06:50:00.278Z,1.50
2023-02-02T06:56:04.551Z,1.50
2023-02-02T07:02:08.417Z,1.63
2023-02-02T07:08:13.214Z,2.05
2023-02-02T07:14:16.611Z,2.60
2023-02-02T07:20:20.058Z,1.52
2023-02-02T07:26:24.848Z,1.50
2023-02-02T07:32:28.363Z,1.85
2023-02-02T07:38:31.734Z,1.50
2023-02-02T07:44:36.534Z,1.50
2023-02-02T07:50:39.920Z,2.10
2023-02-02T07:56:43.523Z,1.23
2023-02-02T08:02:50.178Z,2.05
2023-02-02T08:08:53.639Z,1.83
2023-02-02T08:14:58.648Z,1.50
2023-02-02T08:21:04.588Z,1.67
2023-02-02T08:27:08.706Z,1.80
2023-02-02T08:33:12.091Z,2.00
2023-02-02T08:39:16.957Z,2.30
2023-02-02T08:46:01.858Z,1.55
2023-02-02T08:51:43.830Z,1.70
2023-02-02T08:57:48.606Z,1.60
2023-02-02T09:03:55.274Z,1.50
2023-02-02T09:09:58.690Z,1.35
2023-02-02T09:16:04.121Z,2.30
2023-02-02T09:22:07.514Z,1.60
2023-02-02T09:28:10.933Z,1.60
2023-02-02T09:34:16.485Z,2.47
2023-02-02T09:40:21.271Z,1.65
2023-02-02T09:46:29.987Z,1.90
2023-02-02T09:52:39.562Z,1.77
2023-02-02T09:58:47.176Z,1.40
2023-02-02T10:04:52.214Z,1.67
2023-02-02T10:10:57.027Z,1.52
2023-02-02T10:17:02.393Z,1.40
2023-02-02T10:23:10.792Z,1.92
2023-02-02T10:29:18.751Z,1.60
2023-02-02T10:35:29.390Z,1.60
2023-02-02T10:41:36.095Z,1.17
2023-02-02T10:47:40.886Z,1.65
2023-02-02T10:53:45.583Z,1.33
2023-02-02T10:59:55.116Z,1.13
2023-02-02T11:06:32.545Z,1.70
2023-02-02T11:12:36.686Z,1.00
2023-02-02T11:18:40.271Z,1.23
2023-02-02T11:24:47.538Z,1.02
2023-02-02T11:30:52.622Z,0.80
2023-02-02T11:37:00.802Z,0.90
2023-02-02T11:43:07.016Z,1.05
2023-02-02T11:49:16.659Z,1.00
2023-02-02T11:55:23.367Z,1.00
2023-02-02T12:01:29.275Z,0.98
2023-02-02T12:07:34.400Z,1.40
2023-02-02T12:13:41.686Z,1.10
2023-02-02T12:19:56.217Z,1.17
2023-02-02T12:26:08.096Z,1.00
2023-02-02T12:32:18.747Z,1.23
2023-02-02T12:38:30.267Z,0.90
2023-02-02T12:44:37.136Z,1.27
2023-02-02T12:50:44.454Z,1.17
2023-02-02T12:56:54.358Z,1.30
2023-02-02T13:03:07.096Z,1.60
2023-02-02T13:09:14.080Z,0.98
2023-02-02T13:15:23.800Z,0.88
2023-02-02T13:21:28.727Z,1.15
2023-02-02T13:27:32.523Z,1.15
2023-02-02T13:33:38.318Z,1.25
2023-02-02T13:39:44.175Z,1.23
2023-02-02T13:45:52.802Z,1.08
2023-02-02T13:52:10.871Z,1.40
2023-02-02T13:58:29.124Z,1.08
2023-02-02T14:04:33.070Z,1.10
2023-02-02T14:10:38.980Z,1.23
2023-02-02T14:16:46.940Z,1.08
2023-02-02T14:22:52.484Z,1.05
2023-02-02T14:28:57.289Z,1.00
2023-02-02T14:35:01.034Z,1.10
2023-02-02T14:41:11.299Z,1.33
2023-02-02T14:47:32.459Z,1.20
2023-02-02T14:53:39.062Z,1.25
2023-02-02T14:59:47.596Z,1.70
2023-02-02T15:06:03.591Z,1.30
2023-02-02T15:12:31.484Z,1.35
2023-02-02T15:18:40.940Z,1.60
2023-02-02T15:24:46.848Z,1.50
2023-02-02T15:30:53.714Z,1.05
2023-02-02T15:36:58.775Z,1.60
2023-02-02T15:43:05.339Z,1.55
2023-02-02T15:49:35.087Z,1.35
2023-02-02T15:55:39.034Z,1.35
2023-02-02T16:01:48.003Z,1.30
2023-02-02T16:08:04.952Z,0.93
2023-02-02T16:14:17.596Z,1.38
2023-02-02T16:20:21.478Z,1.88
2023-02-02T16:26:29.598Z,2.00
2023-02-02T16:32:33.926Z,2.13
2023-02-02T16:38:38.947Z,1.50
2023-02-02T16:44:44.802Z,2.40
2023-02-02T16:50:49.211Z,1.92
2023-02-02T16:56:53.541Z,2.67
2023-02-02T17:03:01.774Z,1.77
2023-02-02T17:09:24.359Z,1.50
2023-02-02T17:15:35.681Z,2.08
2023-02-02T17:21:41.487Z,2.10
2023-02-02T17:27:45.623Z,3.78
2023-02-02T17:33:49.010Z,3.20
2023-02-02T17:39:54.118Z,2.80
2023-02-02T17:45:57.747Z,2.15
2023-02-02T17:52:01.639Z,1.30
2023-02-02T17:58:06.482Z,2.10
2023-02-02T18:04:12.790Z,1.50
2023-02-02T18:10:19.245Z,1.63
2023-02-02T18:16:24.083Z,1.75
2023-02-02T18:22:28.074Z,1.83
2023-02-02T18:28:31.460Z,1.50
2023-02-02T18:34:36.951Z,1.58
2023-02-02T18:40:40.999Z,2.22
2023-02-02T18:46:44.533Z,1.50
2023-02-02T18:52:49.344Z,1.30
2023-02-02T18:58:52.847Z,1.50
2023-02-02T19:05:13.925Z,1.85
2023-02-02T19:11:19.427Z,1.55
2023-02-02T19:17:24.611Z,2.13
2023-02-02T19:23:33.351Z,1.65
2023-02-02T19:29:40.745Z,1.45
2023-02-02T19:35:46.518Z,2.15
2023-02-02T19:41:49.996Z,1.70
2023-02-02T19:47:55.902Z,2.78
2023-02-02T19:54:01.485Z,2.45
2023-02-02T20:00:15.792Z,2.33
2023-02-02T20:06:24.749Z,1.60
2023-02-02T20:12:30.414Z,1.80
2023-02-02T20:18:40.253Z,2.20
2023-02-02T20:24:45.418Z,2.70
2023-02-02T20:30:50.273Z,2.58
2023-02-02T20:36:54.076Z,2.20
2023-02-02T20:42:58.909Z,2.95
2023-02-02T20:49:05.438Z,2.80
2023-02-02T20:55:09.410Z,3.05
2023-02-02T21:01:14.482Z,2.80
2023-02-02T21:07:18.726Z,3.22
2023-02-02T21:13:22.148Z,3.00
2023-02-02T21:19:26.964Z,3.40
2023-02-02T21:25:30.385Z,2.60
2023-02-02T21:31:35.278Z,1.88
2023-02-02T21:37:41.149Z,1.95
2023-02-02T21:43:44.675Z,1.83
2023-02-02T21:49:48.164Z,2.15
2023-02-02T21:55:56.316Z,2.28
2023-02-02T22:01:59.712Z,2.25
2023-02-02T22:08:05.248Z,2.17
2023-02-02T22:14:21.622Z,2.20
2023-02-02T22:20:30.820Z,2.80
2023-02-02T22:26:35.500Z,2.20
2023-02-02T22:32:40.587Z,2.13
2023-02-02T22:38:43.980Z,2.20
2023-02-02T22:44:48.251Z,1.48
2023-02-02T22:50:53.055Z,1.70
2023-02-02T22:56:56.601Z,1.80
2023-02-02T23:03:00.592Z,2.03
2023-02-02T23:09:05.671Z,1.85
2023-02-02T23:15:09.902Z,1.67
2023-02-02T23:21:13.296Z,1.58
2023-02-02T23:27:18.021Z,1.52
2023-02-02T23:33:21.400Z,1.70
2023-02-02T23:39:25.174Z,1.80
2023-02-02T23:45:29.943Z,1.30
2023-02-02T23:51:33.955Z,1.23
2023-02-02T23:57:37.818Z,1.48
